Time;durP1;ratioP1;P1;durP2;ratioP2;P2;SDS_P1;SDS_P2;PMS_P1;PMS_P2;Temp;Humidity;BMP_temperature;BMP_pressure;BME280_temperature;BME280_humidity;BME280_pressure;Samples;Min_cycle;Max_cycle;Signal;HPM_P1;HPM_P2
2022/12/25 00:01:58;;;;;;;;;;;11.60;99.90;;;;;;6128500;23;19954;-79
2022/12/25 00:04:23;;;;;;;;;;;11.50;99.90;;;;;;6128236;23;19904;-78
2022/12/25 00:06:49;;;;;;;;;;;11.50;99.90;;;;;;6128718;23;19912;-79
2022/12/25 00:09:14;;;;;;;;;;;11.50;99.90;;;;;;6127833;23;19905;-80
2022/12/25 00:11:40;;;;;;;;;;;11.60;99.90;;;;;;6128283;23;19912;-79
2022/12/25 00:14:06;;;;;;;;;;;11.60;99.90;;;;;;6128311;23;19905;-79
2022/12/25 00:16:31;;;;;;;;;;;11.60;99.90;;;;;;6128113;23;19905;-79
2022/12/25 00:19:00;;;;;;;;;;;11.70;99.90;;;;;;6128674;23;19905;-79
2022/12/25 00:21:26;;;;;;;;;;;11.60;99.90;;;;;;6128106;23;20225;-79
2022/12/25 00:23:55;;;;;;;;;;;11.80;99.90;;;;;;6128337;23;19905;-78
2022/12/25 00:26:21;;;;;;;;;;;11.80;99.90;;;;;;6127888;23;20320;-78
2022/12/25 00:28:47;;;;;;;;;;;11.80;99.90;;;;;;6128067;23;19905;-80
2022/12/25 00:31:13;;;;;;;;;;;11.70;99.90;;;;;;6128399;23;20306;-78
2022/12/25 00:33:40;;;;;;;;;;;11.70;99.90;;;;;;6127926;23;20316;-79
2022/12/25 00:36:06;;;;;;;;;;;11.80;99.90;;;;;;6128216;23;20407;-80
2022/12/25 00:38:32;;;;;;;;;;;11.80;99.90;;;;;;6128050;23;19912;-79
2022/12/25 00:40:58;;;;;;;;;;;11.80;99.90;;;;;;6128056;23;19905;-79
2022/12/25 00:43:23;;;;;;;;;;;11.80;93.40;;;;;;6127897;23;19964;-79
2022/12/25 00:45:53;;;;;;;;;;;11.80;93.20;;;;;;6127837;23;19912;-79
2022/12/25 00:48:18;;;;;;;;;;;11.80;82.30;;;;;;6127800;23;19980;-78
2022/12/25 00:50:44;;;;;;;;;;;11.80;68.80;;;;;;6101851;23;20007;-79
2022/12/25 00:53:09;;;;;;;;;;;11.80;70.20;;;;;;6127889;23;19954;-80
2022/12/25 00:55:35;;;;;;;;;;;11.80;71.60;;;;;;6127993;23;19955;-80
2022/12/25 00:58:00;;;;;;;;;;;11.70;58.50;;;;;;6101501;23;20304;-79
2022/12/25 01:00:26;;;;;;;;;;;11.70;67.20;;;;;;6127689;23;19905;-79
2022/12/25 01:02:51;;;;;;;;;;;11.70;83.30;;;;;;6127726;23;19955;-78
2022/12/25 01:05:17;;;;;;;;;;;11.70;88.00;;;;;;6127694;23;20355;-78
2022/12/25 01:07:42;;;;;;;;;;;11.70;84.20;;;;;;6127707;23;19991;-78
2022/12/25 01:10:21;;;;;;;;;;;11.70;82.20;;;;;;6127694;23;19905;-78
2022/12/25 01:12:47;;;;;;;;;;;11.70;91.30;;;;;;6127463;23;19905;-79
2022/12/25 01:15:13;;;;;;;;;;;11.70;93.90;;;;;;6127945;23;20391;-80
2022/12/25 01:17:38;;;;;;;;;;;11.70;88.20;;;;;;6127550;23;19905;-79
2022/12/25 01:20:04;;;;;;;;;;;11.70;76.80;;;;;;6127375;23;20340;-78
2022/12/25 01:22:30;;;;;;;;;;;11.70;66.80;;;;;;6101540;23;19936;-79
2022/12/25 01:24:55;;;;;;;;;;;11.70;89.20;;;;;;6127427;23;19952;-79
2022/12/25 01:27:21;;;;;;;;;;;11.80;99.70;;;;;;6127441;23;19931;-79
2022/12/25 01:29:46;;;;;;;;;;;11.80;88.50;;;;;;6127917;23;19905;-79
2022/12/25 01:32:12;;;;;;;;;;;11.80;90.90;;;;;;6127751;23;19914;-79
2022/12/25 01:34:38;;;;;;;;;;;11.80;91.50;;;;;;6127269;23;19963;-79
2022/12/25 01:37:03;;;;;;;;;;;11.80;90.40;;;;;;6127324;23;19928;-79
2022/12/25 01:39:29;;;;;;;;;;;11.80;94.90;;;;;;6127869;23;19909;-78
2022/12/25 01:41:54;;;;;;;;;;;11.80;45.60;;;;;;6127767;23;19957;-78
2022/12/25 01:44:49;;;;;;;;;;;11.80;84.30;;;;;;6127357;23;19904;-78
2022/12/25 01:47:16;;;;;;;;;;;11.80;50.70;;;;;;6023911;23;19993;-78
2022/12/25 01:49:43;;;;;;;;;;;11.80;1.00;;;;;;6127275;23;19975;-78
2022/12/25 01:52:10;;;;;;;;;;;11.90;1.00;;;;;;6127547;23;19905;-78
2022/12/25 01:54:38;;;;;;;;;;;11.80;1.00;;;;;;6127432;23;19909;-78
2022/12/25 01:57:05;;;;;;;;;;;11.90;1.00;;;;;;6126798;23;20100;-79
2022/12/25 01:59:31;;;;;;;;;;;11.90;1.00;;;;;;6127187;23;19937;-79
2022/12/25 02:01:57;;;;;;;;;;;11.90;1.00;;;;;;6127460;23;19956;-79
2022/12/25 02:04:23;;;;;;;;;;;12.00;1.00;;;;;;6127413;23;19909;-79
2022/12/25 02:06:50;;;;;;;;;;;12.00;1.00;;;;;;6127172;23;19905;-79
2022/12/25 02:09:16;;;;;;;;;;;12.10;1.00;;;;;;6127134;23;19905;-78
2022/12/25 02:11:56;;;;;;;;;;;12.00;1.00;;;;;;6127097;23;19911;-78
2022/12/25 02:14:23;;;;;;;;;;;12.00;1.00;;;;;;6127307;23;19905;-79
2022/12/25 02:16:52;;;;;;;;;;;12.10;1.00;;;;;;6127056;23;20338;-79
2022/12/25 02:19:36;;;;;;;;;;;12.10;1.00;;;;;;6126962;23;19905;-78
2022/12/25 02:22:07;;;;;;;;;;;12.10;1.00;;;;;;6127004;23;19905;-78
2022/12/25 02:24:39;;;;;;;;;;;12.10;1.00;;;;;;6127251;23;19932;-79
2022/12/25 02:27:33;;;;;;;;;;;12.00;1.00;;;;;;6127000;23;19909;-79
2022/12/25 02:30:04;;;;;;;;;;;12.00;99.90;;;;;;5999501;23;20346;-79
2022/12/25 02:32:33;;;;;;;;;;;12.00;99.90;;;;;;6100565;23;19908;-80
2022/12/25 02:35:14;;;;;;;;;;;12.00;1.00;;;;;;6126774;23;19948;-79
2022/12/25 02:37:45;;;;;;;;;;;12.00;1.00;;;;;;6126833;23;19905;-78
2022/12/25 02:40:17;;;;;;;;;;;11.90;1.00;;;;;;6126981;23;19932;-77
2022/12/25 03:07:44;;;;;;;;;;;11.30;99.90;;;;;;6126425;23;19912;-78
2022/12/25 03:13:00;;;;;;;;;;;11.20;99.90;;;;;;6126446;23;19965;-78
2022/12/25 03:18:30;;;;;;;;;;;11.20;99.90;;;;;;6066190;23;19969;-78
2022/12/25 03:26:53;;;;;;;;;;;11.20;99.90;;;;;;6101884;23;20354;-77
2022/12/25 03:26:56;;;;;;;;;;;11.10;99.90;;;;;;6125544;23;19912;-79
2022/12/25 03:32:14;;;;;;;;;;;11.10;99.90;;;;;;6126625;23;19972;-77
2022/12/25 03:38:08;;;;;;;;;;;11.20;99.90;;;;;;6126358;23;20367;-78
2022/12/25 04:36:10;;;;;;;;;;;11.60;99.90;;;;;;6127560;23;19916;-79
2022/12/25 04:38:37;;;;;;;;;;;11.60;99.90;;;;;;6127978;23;19905;-79
2022/12/25 04:41:03;;;;;;;;;;;11.70;99.90;;;;;;6128380;23;20240;-79
2022/12/25 04:43:29;;;;;;;;;;;11.70;99.90;;;;;;6127932;23;19955;-79
2022/12/25 04:45:55;;;;;;;;;;;11.70;99.90;;;;;;6127894;23;20225;-78
2022/12/25 04:48:20;;;;;;;;;;;11.70;99.90;;;;;;6127971;23;19905;-79
2022/12/25 04:50:46;;;;;;;;;;;11.60;99.90;;;;;;6127870;23;19905;-79
2022/12/25 04:53:12;;;;;;;;;;;11.60;99.90;;;;;;6127647;23;19909;-78
2022/12/25 04:55:37;;;;;;;;;;;11.50;99.90;;;;;;6127136;23;20332;-79
2022/12/25 04:58:03;;;;;;;;;;;11.50;99.90;;;;;;6127939;23;19905;-79
2022/12/25 05:00:28;;;;;;;;;;;11.60;99.90;;;;;;6127702;23;20332;-79
2022/12/25 05:02:54;;;;;;;;;;;11.60;99.90;;;;;;6127992;23;19933;-77
2022/12/25 05:05:20;;;;;;;;;;;11.60;99.90;;;;;;6127628;23;19928;-79
2022/12/25 05:07:45;;;;;;;;;;;11.60;99.90;;;;;;6127636;23;19908;-79
2022/12/25 05:10:11;;;;;;;;;;;11.60;99.90;;;;;;6127629;23;19955;-78
2022/12/25 05:12:36;;;;;;;;;;;11.50;99.90;;;;;;6127633;23;19912;-79
2022/12/25 05:15:02;;;;;;;;;;;11.60;99.90;;;;;;6127544;23;20287;-79
2022/12/25 05:17:27;;;;;;;;;;;11.70;99.90;;;;;;6127781;23;19953;-79
2022/12/25 05:19:53;;;;;;;;;;;11.80;99.90;;;;;;6127734;23;19905;-79
2022/12/25 05:22:18;;;;;;;;;;;11.70;99.90;;;;;;6127604;23;20280;-79
2022/12/25 05:24:44;;;;;;;;;;;11.80;99.90;;;;;;6127552;23;19909;-78
2022/12/25 05:27:10;;;;;;;;;;;11.70;99.90;;;;;;6127769;23;19941;-77
2022/12/25 05:29:35;;;;;;;;;;;11.80;99.90;;;;;;6127924;23;19906;-78
2022/12/25 05:32:01;;;;;;;;;;;11.80;99.90;;;;;;6127455;23;20306;-79
2022/12/25 05:34:26;;;;;;;;;;;11.80;99.90;;;;;;6127635;23;19905;-78
2022/12/25 05:36:52;;;;;;;;;;;11.80;99.90;;;;;;6128034;23;19971;-78
2022/12/25 05:39:17;;;;;;;;;;;11.70;99.90;;;;;;6127378;23;19905;-78
2022/12/25 05:41:43;;;;;;;;;;;11.80;99.90;;;;;;6127313;23;19912;-78
2022/12/25 05:44:09;;;;;;;;;;;11.80;99.90;;;;;;6127334;23;20239;-78
2022/12/25 05:46:34;;;;;;;;;;;11.80;99.90;;;;;;6127422;23;19991;-78
2022/12/25 05:49:00;;;;;;;;;;;11.80;99.90;;;;;;6127465;23;20324;-78
2022/12/25 05:51:25;;;;;;;;;;;11.80;99.90;;;;;;6127237;23;19905;-78
2022/12/25 05:53:51;;;;;;;;;;;11.80;99.90;;;;;;6127350;23;19980;-79
2022/12/25 05:56:17;;;;;;;;;;;11.80;99.90;;;;;;6126989;23;19917;-79
2022/12/25 05:58:42;;;;;;;;;;;11.80;99.90;;;;;;6127221;23;19905;-79
2022/12/25 06:01:14;;;;;;;;;;;11.80;99.90;;;;;;6127194;23;19911;-79
2022/12/25 06:03:39;;;;;;;;;;;11.80;99.90;;;;;;6127077;23;19960;-78
2022/12/25 06:06:06;;;;;;;;;;;11.80;99.90;;;;;;6100819;23;19905;-78
2022/12/25 06:08:33;;;;;;;;;;;11.80;99.90;;;;;;6127321;23;19905;-79
2022/12/25 06:11:00;;;;;;;;;;;11.70;99.90;;;;;;6127226;23;19985;-79
2022/12/25 06:13:26;;;;;;;;;;;11.60;99.90;;;;;;6127112;23;19908;-78
2022/12/25 06:15:52;;;;;;;;;;;11.70;99.90;;;;;;6127269;23;19995;-78
2022/12/25 06:18:17;;;;;;;;;;;11.60;99.90;;;;;;6127682;23;19909;-77
2022/12/25 06:20:43;;;;;;;;;;;11.60;99.90;;;;;;6127052;23;19905;-79
2022/12/25 06:23:08;;;;;;;;;;;11.60;99.90;;;;;;6126990;23;19954;-78
2022/12/25 06:25:37;;;;;;;;;;;11.70;99.90;;;;;;6127004;23;19983;-78
2022/12/25 06:28:02;;;;;;;;;;;11.60;99.90;;;;;;6127559;23;19905;-78
2022/12/25 06:30:28;;;;;;;;;;;11.60;99.90;;;;;;6127164;23;20035;-78
2022/12/25 06:32:53;;;;;;;;;;;11.50;99.90;;;;;;6126932;23;19905;-81
2022/12/25 06:35:19;;;;;;;;;;;11.50;99.90;;;;;;6126851;23;20297;-80
2022/12/25 06:37:45;;;;;;;;;;;11.50;99.90;;;;;;6127423;23;19915;-79
2022/12/25 06:40:12;;;;;;;;;;;11.40;99.90;;;;;;6126923;23;20001;-78
2022/12/25 06:42:37;;;;;;;;;;;11.40;99.90;;;;;;6126925;23;19905;-78
2022/12/25 06:45:03;;;;;;;;;;;11.40;99.90;;;;;;6126964;23;19939;-79
2022/12/25 06:47:29;;;;;;;;;;;11.50;99.90;;;;;;6126820;23;19905;-79
2022/12/25 06:49:54;;;;;;;;;;;11.50;99.90;;;;;;6126878;23;19987;-79
2022/12/25 06:52:20;;;;;;;;;;;11.50;99.90;;;;;;6126812;23;20336;-78
2022/12/25 06:54:46;;;;;;;;;;;11.50;99.90;;;;;;6126942;23;19909;-79
2022/12/25 06:57:12;;;;;;;;;;;11.40;99.90;;;;;;6126286;23;19972;-78
2022/12/25 06:59:37;;;;;;;;;;;11.40;99.90;;;;;;6126839;23;19909;-78
2022/12/25 07:02:03;;;;;;;;;;;11.40;99.90;;;;;;6127061;23;19905;-79
2022/12/25 07:04:37;;;;;;;;;;;11.40;99.90;;;;;;6127172;23;19905;-78
2022/12/25 07:07:04;;;;;;;;;;;11.40;99.90;;;;;;6126764;23;19928;-78
2022/12/25 07:09:29;;;;;;;;;;;11.40;99.90;;;;;;6126744;23;20320;-79
2022/12/25 07:12:01;;;;;;;;;;;11.40;99.90;;;;;;6126733;23;19936;-79
2022/12/25 07:14:27;;;;;;;;;;;11.30;99.90;;;;;;6126919;23;19905;-80
2022/12/25 07:16:52;;;;;;;;;;;11.30;99.90;;;;;;6127265;23;19913;-77
2022/12/25 07:19:18;;;;;;;;;;;11.30;99.90;;;;;;6128705;23;19912;-79
2022/12/25 07:21:43;;;;;;;;;;;11.30;99.90;;;;;;6128682;23;19937;-78
2022/12/25 07:24:10;;;;;;;;;;;11.30;99.90;;;;;;6128882;23;19912;-78
2022/12/25 07:26:35;;;;;;;;;;;11.30;99.90;;;;;;6128704;23;19905;-78
2022/12/25 07:29:01;;;;;;;;;;;11.30;99.90;;;;;;6128676;23;20331;-78
2022/12/25 07:31:26;;;;;;;;;;;11.30;99.90;;;;;;6128593;23;19905;-78
2022/12/25 07:33:53;;;;;;;;;;;11.40;99.90;;;;;;6128572;23;19905;-79
2022/12/25 07:36:19;;;;;;;;;;;11.40;99.90;;;;;;6102485;23;20261;-78
2022/12/25 07:38:48;;;;;;;;;;;11.40;99.90;;;;;;6128762;23;19909;-78
2022/12/25 07:41:13;;;;;;;;;;;11.50;99.90;;;;;;6128497;23;19905;-79
2022/12/25 07:43:39;;;;;;;;;;;11.60;99.90;;;;;;6128464;23;19912;-78
2022/12/25 07:46:05;;;;;;;;;;;11.50;99.90;;;;;;6128375;23;19916;-77
2022/12/25 07:48:30;;;;;;;;;;;11.60;99.90;;;;;;6128740;23;19992;-77
2022/12/25 07:51:00;;;;;;;;;;;11.50;99.90;;;;;;6128627;23;20339;-78
2022/12/25 07:53:26;;;;;;;;;;;11.50;99.90;;;;;;6128232;23;19976;-78
2022/12/25 07:55:55;;;;;;;;;;;11.40;99.90;;;;;;6127962;23;20295;-79
2022/12/25 07:58:23;;;;;;;;;;;11.50;99.90;;;;;;6127755;23;20454;-79
2022/12/25 08:00:49;;;;;;;;;;;11.50;99.90;;;;;;6128336;23;19944;-79
2022/12/25 08:03:15;;;;;;;;;;;11.50;99.90;;;;;;6128305;23;19936;-79
2022/12/25 08:05:41;;;;;;;;;;;11.50;99.90;;;;;;6128267;23;19936;-78
2022/12/25 08:08:06;;;;;;;;;;;11.60;99.90;;;;;;6128459;23;20240;-79
2022/12/25 08:10:32;;;;;;;;;;;11.60;99.90;;;;;;6128420;23;19911;-78
2022/12/25 08:12:57;;;;;;;;;;;11.60;99.90;;;;;;6128191;23;19952;-78
2022/12/25 08:15:23;;;;;;;;;;;11.50;99.90;;;;;;6128119;23;19991;-79
2022/12/25 08:17:48;;;;;;;;;;;11.60;99.90;;;;;;6128304;23;19905;-80
2022/12/25 08:20:14;;;;;;;;;;;11.60;99.90;;;;;;6128142;23;19909;-78
2022/12/25 08:22:40;;;;;;;;;;;11.60;99.90;;;;;;6128117;23;20379;-79
2022/12/25 08:25:05;;;;;;;;;;;11.50;99.90;;;;;;6128279;23;19905;-78
2022/12/25 08:27:32;;;;;;;;;;;11.50;99.90;;;;;;6128202;23;20255;-78
2022/12/25 08:29:58;;;;;;;;;;;11.50;99.90;;;;;;6127553;23;19911;-78
2022/12/25 08:32:23;;;;;;;;;;;11.50;99.90;;;;;;6127995;23;19932;-79
2022/12/25 08:34:49;;;;;;;;;;;11.50;99.90;;;;;;6128365;23;19916;-79
2022/12/25 08:37:14;;;;;;;;;;;11.50;99.90;;;;;;6127918;23;19959;-78
2022/12/25 08:39:40;;;;;;;;;;;11.50;99.90;;;;;;6127951;23;19980;-78
2022/12/25 08:42:05;;;;;;;;;;;11.50;99.90;;;;;;6128057;23;19905;-77
2022/12/25 08:44:31;;;;;;;;;;;11.50;99.90;;;;;;6127881;23;19933;-78
2022/12/25 08:46:57;;;;;;;;;;;11.50;99.90;;;;;;6127925;23;19911;-79
2022/12/25 08:49:26;;;;;;;;;;;11.50;99.90;;;;;;6127847;23;20236;-78
2022/12/25 08:51:51;;;;;;;;;;;11.50;99.90;;;;;;6127832;23;20320;-77
2022/12/25 08:54:17;;;;;;;;;;;11.60;99.90;;;;;;6127864;23;19905;-78
2022/12/25 08:56:43;;;;;;;;;;;11.60;99.90;;;;;;6127535;23;20363;-79
2022/12/25 08:59:08;;;;;;;;;;;11.60;99.90;;;;;;6128021;23;20225;-78
2022/12/25 09:01:34;;;;;;;;;;;11.60;99.90;;;;;;6127976;23;20328;-77
2022/12/25 09:03:59;;;;;;;;;;;11.60;99.90;;;;;;6127721;23;19909;-79
2022/12/25 09:06:25;;;;;;;;;;;11.60;99.90;;;;;;6127685;23;20358;-78
2022/12/25 09:08:50;;;;;;;;;;;11.50;99.90;;;;;;6127742;23;19905;-78
2022/12/25 09:11:17;;;;;;;;;;;11.50;99.90;;;;;;6127939;23;19987;-79
2022/12/25 09:13:43;;;;;;;;;;;11.50;99.90;;;;;;6127847;23;19980;-79
2022/12/25 09:16:12;;;;;;;;;;;11.60;99.90;;;;;;6127722;23;19940;-77
2022/12/25 09:18:37;;;;;;;;;;;11.50;99.90;;;;;;6127600;23;19905;-78
2022/12/25 09:21:04;;;;;;;;;;;11.50;99.90;;;;;;6128046;23;19932;-78
2022/12/25 09:23:30;;;;;;;;;;;11.50;99.90;;;;;;6127506;23;19980;-78
2022/12/25 09:25:59;;;;;;;;;;;11.60;99.90;;;;;;6128073;23;19933;-78
2022/12/25 09:28:25;;;;;;;;;;;11.60;99.90;;;;;;6127384;23;19924;-78
2022/12/25 09:30:51;;;;;;;;;;;11.60;99.90;;;;;;6127969;23;19909;-78
2022/12/25 09:33:17;;;;;;;;;;;11.60;99.90;;;;;;6127450;23;20388;-78
2022/12/25 09:35:43;;;;;;;;;;;11.60;99.90;;;;;;6127471;23;19909;-79
2022/12/25 09:38:08;;;;;;;;;;;11.50;99.90;;;;;;6127380;23;19905;-79
2022/12/25 09:40:34;;;;;;;;;;;11.60;99.90;;;;;;6127323;23;19909;-79
2022/12/25 09:43:01;;;;;;;;;;;11.60;99.90;;;;;;6127320;23;19975;-78
2022/12/25 09:45:32;;;;;;;;;;;11.60;99.90;;;;;;6127273;23;19905;-78
2022/12/25 09:47:58;;;;;;;;;;;11.80;99.90;;;;;;6127444;23;19979;-78
2022/12/25 09:50:35;;;;;;;;;;;11.70;99.90;;;;;;6127273;23;20399;-77
2022/12/25 09:53:31;;;;;;;;;;;11.70;99.90;;;;;;6127161;23;19905;-77
2022/12/25 09:56:03;;;;;;;;;;;11.60;99.90;;;;;;6102246;23;19932;-79
2022/12/25 09:58:29;;;;;;;;;;;11.60;99.90;;;;;;6127291;23;19956;-78
2022/12/25 10:00:59;;;;;;;;;;;11.60;99.90;;;;;;6127168;23;19913;-78
2022/12/25 10:03:44;;;;;;;;;;;11.80;99.90;;;;;;6127389;23;19913;-78
2022/12/25 10:06:12;;;;;;;;;;;11.80;99.90;;;;;;6127273;23;20380;-78
2022/12/25 10:08:48;;;;;;;;;;;11.80;99.90;;;;;;6127109;23;19908;-78
2022/12/25 10:11:37;;;;;;;;;;;11.90;99.90;;;;;;6127388;23;20321;-78
2022/12/25 10:14:21;;;;;;;;;;;12.00;99.90;;;;;;6127277;23;19959;-77
2022/12/25 10:16:52;;;;;;;;;;;12.00;99.90;;;;;;6127010;23;19956;-78
2022/12/25 10:19:21;;;;;;;;;;;12.20;99.90;;;;;;6127484;23;20028;-79
2022/12/25 10:21:47;;;;;;;;;;;12.20;99.90;;;;;;6127099;23;19912;-78
2022/12/25 10:24:15;;;;;;;;;;;12.20;99.90;;;;;;6127016;23;20218;-78
2022/12/25 10:26:41;;;;;;;;;;;12.10;99.90;;;;;;6127018;23;19909;-77
2022/12/25 10:29:10;;;;;;;;;;;12.30;99.90;;;;;;6127202;23;19909;-78
2022/12/25 10:31:36;;;;;;;;;;;12.30;99.90;;;;;;6100946;23;20279;-78
2022/12/25 10:34:02;;;;;;;;;;;12.60;99.90;;;;;;6126987;23;19972;-79
2022/12/25 10:36:28;;;;;;;;;;;12.60;99.90;;;;;;6126870;23;20035;-78
2022/12/25 10:38:54;;;;;;;;;;;12.60;99.90;;;;;;6127212;23;19905;-78
2022/12/25 10:41:38;;;;;;;;;;;12.40;99.90;;;;;;6127109;23;19913;-78
2022/12/25 10:44:20;;;;;;;;;;;12.40;99.90;;;;;;6127016;23;19905;-78
2022/12/25 10:46:50;;;;;;;;;;;12.40;99.90;;;;;;6127370;23;19905;-78
2022/12/25 10:49:18;;;;;;;;;;;12.30;99.90;;;;;;6127015;23;19995;-78
2022/12/25 10:51:44;;;;;;;;;;;12.30;99.90;;;;;;6126611;23;19983;-79
2022/12/25 10:54:28;;;;;;;;;;;12.50;99.90;;;;;;6126748;23;20271;-78
2022/12/25 10:56:59;;;;;;;;;;;12.50;99.90;;;;;;6126752;23;19917;-77
2022/12/25 10:59:26;;;;;;;;;;;12.40;99.90;;;;;;6126835;23;19955;-77
2022/12/25 11:01:52;;;;;;;;;;;12.70;99.90;;;;;;6126800;23;19916;-78
2022/12/25 11:04:27;;;;;;;;;;;13.00;99.90;;;;;;6126845;23;19905;-78
2022/12/25 11:06:57;;;;;;;;;;;12.90;99.90;;;;;;6127557;23;19959;-77
2022/12/25 11:09:22;;;;;;;;;;;12.90;99.90;;;;;;6126724;23;19956;-77
2022/12/25 11:11:48;;;;;;;;;;;12.80;99.90;;;;;;6126843;23;19905;-77
2022/12/25 11:14:17;;;;;;;;;;;12.70;99.90;;;;;;6126772;23;19976;-77
2022/12/25 11:16:43;;;;;;;;;;;12.80;99.90;;;;;;6126652;23;19947;-78
2022/12/25 11:19:20;;;;;;;;;;;12.70;99.90;;;;;;6127192;23;19905;-80
2022/12/25 11:21:49;;;;;;;;;;;12.80;99.90;;;;;;6126727;23;19987;-79
2022/12/25 11:24:20;;;;;;;;;;;12.70;99.90;;;;;;6126612;23;19909;-77
2022/12/25 11:26:47;;;;;;;;;;;12.80;99.90;;;;;;6127214;23;19909;-78
2022/12/25 11:29:32;;;;;;;;;;;12.70;99.90;;;;;;6126899;23;19987;-78
2022/12/25 11:31:59;;;;;;;;;;;12.70;99.90;;;;;;6105868;23;19905;-78
2022/12/25 11:34:45;;;;;;;;;;;12.90;99.90;;;;;;6126945;23;19924;-78
2022/12/25 11:37:14;;;;;;;;;;;13.00;99.90;;;;;;6125796;23;19987;-77
2022/12/25 11:39:40;;;;;;;;;;;12.90;99.90;;;;;;6126755;23;19976;-78
2022/12/25 11:42:12;;;;;;;;;;;12.80;99.90;;;;;;6126722;23;19909;-77
2022/12/25 11:44:56;;;;;;;;;;;12.90;99.90;;;;;;6126939;23;19905;-77
2022/12/25 11:47:24;;;;;;;;;;;12.90;99.90;;;;;;6126686;23;20291;-77
2022/12/25 11:50:13;;;;;;;;;;;13.40;99.90;;;;;;6126605;23;19905;-78
2022/12/25 11:52:40;;;;;;;;;;;14.00;99.90;;;;;;6110709;23;19912;-77
2022/12/25 11:55:15;;;;;;;;;;;14.20;99.90;;;;;;6126855;23;20306;-78
2022/12/25 11:57:42;;;;;;;;;;;14.10;99.90;;;;;;6126727;23;19992;-77
2022/12/25 12:00:12;;;;;;;;;;;13.60;99.90;;;;;;6126618;23;19905;-78
2022/12/25 12:02:41;;;;;;;;;;;13.40;99.90;;;;;;6126585;23;20243;-77
2022/12/25 12:05:12;;;;;;;;;;;13.20;99.90;;;;;;6127582;23;20217;-79
2022/12/25 12:07:45;;;;;;;;;;;13.10;99.90;;;;;;6128655;23;19905;-78
2022/12/25 12:10:18;;;;;;;;;;;13.10;99.90;;;;;;6128407;23;19909;-78
2022/12/25 12:13:13;;;;;;;;;;;12.90;99.90;;;;;;6128215;23;19905;-78
2022/12/25 12:15:46;;;;;;;;;;;12.90;99.90;;;;;;6024660;23;20330;-78
2022/12/25 12:18:14;;;;;;;;;;;12.70;99.90;;;;;;6128199;23;19905;-78
2022/12/25 12:20:40;;;;;;;;;;;12.70;99.90;;;;;;6128106;23;19905;-79
2022/12/25 12:23:12;;;;;;;;;;;12.90;99.90;;;;;;6128636;23;19908;-79
2022/12/25 12:25:39;;;;;;;;;;;12.80;99.90;;;;;;6128302;23;19905;-79
2022/12/25 12:28:10;;;;;;;;;;;13.00;99.90;;;;;;6128167;23;19909;-79
2022/12/25 12:30:36;;;;;;;;;;;12.80;99.90;;;;;;6128191;23;19912;-78
2022/12/25 12:33:03;;;;;;;;;;;12.60;99.90;;;;;;6128038;23;20240;-78
2022/12/25 12:35:31;;;;;;;;;;;12.60;99.90;;;;;;6128235;23;19908;-78
2022/12/25 12:38:23;;;;;;;;;;;12.70;99.90;;;;;;6128296;23;19960;-78
2022/12/25 12:40:56;;;;;;;;;;;12.50;99.90;;;;;;6122096;23;20328;-79
2022/12/25 12:43:28;;;;;;;;;;;12.80;99.90;;;;;;6127918;23;19939;-78
2022/12/25 12:46:00;;;;;;;;;;;12.90;99.90;;;;;;6127951;23;19952;-78
2022/12/25 12:48:27;;;;;;;;;;;13.10;99.90;;;;;;6128048;23;20248;-78
2022/12/25 12:51:06;;;;;;;;;;;13.20;99.90;;;;;;6128174;23;20332;-78
2022/12/25 12:53:32;;;;;;;;;;;13.30;99.90;;;;;;6101848;23;19905;-78
2022/12/25 12:56:08;;;;;;;;;;;13.20;99.90;;;;;;6101525;23;20233;-77
2022/12/25 12:58:35;;;;;;;;;;;13.30;99.90;;;;;;6127834;23;19933;-79
2022/12/25 13:01:06;;;;;;;;;;;13.50;99.90;;;;;;6127839;23;20240;-78
2022/12/25 13:03:50;;;;;;;;;;;13.40;99.90;;;;;;6101825;23;20264;-77
2022/12/25 13:06:18;;;;;;;;;;;13.40;99.90;;;;;;6127931;23;19940;-79
2022/12/25 13:08:47;;;;;;;;;;;13.30;99.90;;;;;;6127769;23;19908;-77
2022/12/25 13:11:23;;;;;;;;;;;13.50;99.90;;;;;;6127591;23;19905;-78
2022/12/25 13:13:50;;;;;;;;;;;13.60;99.90;;;;;;6127813;23;19905;-78
2022/12/25 13:16:15;;;;;;;;;;;13.40;99.90;;;;;;6127381;23;19960;-77
2022/12/25 13:18:41;;;;;;;;;;;13.30;99.90;;;;;;6127629;23;19905;-78
2022/12/25 13:21:11;;;;;;;;;;;13.20;99.90;;;;;;6127611;23;19905;-77
2022/12/25 13:23:37;;;;;;;;;;;13.10;99.90;;;;;;6127556;23;19905;-78
2022/12/25 13:26:05;;;;;;;;;;;13.00;99.90;;;;;;6127871;23;19940;-77
2022/12/25 13:28:32;;;;;;;;;;;13.10;99.90;;;;;;6127564;23;20028;-78
2022/12/25 13:31:02;;;;;;;;;;;13.00;99.90;;;;;;6127375;23;19912;-78
2022/12/25 13:33:28;;;;;;;;;;;13.00;99.90;;;;;;6127704;23;19968;-78
2022/12/25 13:35:53;;;;;;;;;;;13.00;99.90;;;;;;6127682;23;20320;-78
2022/12/25 13:38:20;;;;;;;;;;;12.90;99.90;;;;;;6127741;23;19912;-78
2022/12/25 13:42:04;;;;;;;;;;;13.00;99.90;;;;;;6101295;23;19944;-77
2022/12/25 13:43:39;;;;;;;;;;;13.20;99.90;;;;;;6126965;23;19912;-78
2022/12/25 13:46:05;;;;;;;;;;;13.50;99.90;;;;;;6127447;23;19909;-77
2022/12/25 13:48:31;;;;;;;;;;;13.60;99.90;;;;;;6127388;23;19941;-77
2022/12/25 13:51:00;;;;;;;;;;;13.50;99.90;;;;;;6127223;23;19912;-77
2022/12/25 13:53:26;;;;;;;;;;;13.50;99.90;;;;;;6127165;23;19916;-77
2022/12/25 13:55:53;;;;;;;;;;;13.40;99.90;;;;;;6126914;23;19917;-78
2022/12/25 13:58:26;;;;;;;;;;;13.20;99.90;;;;;;6127290;23;20243;-77
2022/12/25 14:00:54;;;;;;;;;;;13.30;99.90;;;;;;6127197;23;19940;-77
2022/12/25 14:03:46;;;;;;;;;;;13.40;99.90;;;;;;6127142;23;19905;-77
2022/12/25 14:06:19;;;;;;;;;;;13.30;99.90;;;;;;6121512;23;19905;-80
2022/12/25 14:08:45;;;;;;;;;;;13.20;99.90;;;;;;6127133;23;20335;-77
2022/12/25 14:11:13;;;;;;;;;;;13.10;99.90;;;;;;6127116;23;19936;-76
2022/12/25 14:13:40;;;;;;;;;;;13.20;99.90;;;;;;6127299;23;20379;-77
2022/12/25 14:16:06;;;;;;;;;;;13.20;99.90;;;;;;6127114;23;19960;-78
2022/12/25 14:18:32;;;;;;;;;;;13.30;99.90;;;;;;6126969;23;20284;-78
2022/12/25 14:20:58;;;;;;;;;;;13.40;99.90;;;;;;6127083;23;19960;-77
2022/12/25 14:23:23;;;;;;;;;;;13.40;99.90;;;;;;6127296;23;19909;-80
2022/12/25 14:25:49;;;;;;;;;;;13.40;64.30;;;;;;6127462;23;20379;-77
2022/12/25 14:28:17;;;;;;;;;;;13.40;17.80;;;;;;6126564;23;19909;-79
2022/12/25 14:30:43;;;;;;;;;;;13.60;99.90;;;;;;6126945;23;19948;-79
2022/12/25 14:33:16;;;;;;;;;;;13.60;66.30;;;;;;6126928;23;19905;-79
2022/12/25 14:35:42;;;;;;;;;;;13.70;33.20;;;;;;6128291;23;19909;-79
2022/12/25 14:38:22;;;;;;;;;;;13.90;99.90;;;;;;6126902;23;19905;-79
2022/12/25 14:40:56;;;;;;;;;;;13.70;11.20;;;;;;6127040;23;19905;-79
2022/12/25 14:43:25;;;;;;;;;;;13.50;1.00;;;;;;6127009;23;19912;-79
2022/12/25 14:45:56;;;;;;;;;;;13.30;1.00;;;;;;6126979;23;19905;-79
2022/12/25 14:48:23;;;;;;;;;;;13.20;90.30;;;;;;6127057;23;19905;-79
2022/12/25 14:50:55;;;;;;;;;;;13.10;75.40;;;;;;6126964;23;20350;-79
2022/12/25 14:53:22;;;;;;;;;;;13.10;99.90;;;;;;6126787;23;19912;-81
2022/12/25 14:55:49;;;;;;;;;;;13.00;99.90;;;;;;6126790;23;20236;-80
2022/12/25 14:58:18;;;;;;;;;;;12.90;99.90;;;;;;6100638;23;19916;-79
2022/12/25 15:00:44;;;;;;;;;;;12.80;99.90;;;;;;6127025;23;20321;-79
2022/12/25 15:03:25;;;;;;;;;;;12.80;99.90;;;;;;6126774;23;19920;-79
2022/12/25 15:06:19;;;;;;;;;;;12.70;1.00;;;;;;6127243;23;20247;-79
2022/12/25 15:08:59;;;;;;;;;;;12.80;90.20;;;;;;6123132;23;20354;-79
2022/12/25 15:11:24;;;;;;;;;;;12.80;1.00;;;;;;6126808;23;20292;-79
2022/12/25 15:13:50;;;;;;;;;;;12.90;22.00;;;;;;6126778;23;19937;-80
2022/12/25 15:16:21;;;;;;;;;;;13.10;1.00;;;;;;6126632;23;19909;-80
2022/12/25 15:18:48;;;;;;;;;;;13.20;1.00;;;;;;6126780;23;19905;-79
2022/12/25 15:21:19;;;;;;;;;;;13.20;1.00;;;;;;6126725;23;19979;-80
2022/12/25 15:23:45;;;;;;;;;;;13.30;1.00;;;;;;6126688;23;19909;-80
2022/12/25 15:26:13;;;;;;;;;;;13.20;99.90;;;;;;6126660;23;19988;-79
2022/12/25 15:28:39;;;;;;;;;;;13.00;99.90;;;;;;6126878;23;20328;-78
2022/12/25 15:31:13;;;;;;;;;;;13.00;1.00;;;;;;6126660;23;19956;-78
2022/12/25 15:33:39;;;;;;;;;;;13.00;1.00;;;;;;6100429;23;20304;-80
2022/12/25 15:36:05;;;;;;;;;;;13.00;1.00;;;;;;6126629;23;19949;-79
2022/12/25 15:38:35;;;;;;;;;;;13.00;1.00;;;;;;6127660;23;20240;-79
2022/12/25 15:41:01;;;;;;;;;;;12.90;1.00;;;;;;6102666;23;19905;-78
2022/12/25 15:43:26;;;;;;;;;;;12.80;1.00;;;;;;6128493;23;19912;-81
2022/12/25 15:45:52;;;;;;;;;;;12.70;1.00;;;;;;6128490;23;19905;-77
2022/12/25 15:48:17;;;;;;;;;;;12.80;1.00;;;;;;6128948;23;19909;-79
2022/12/25 15:50:45;;;;;;;;;;;12.80;1.00;;;;;;6128757;23;19905;-79
2022/12/25 15:53:11;;;;;;;;;;;12.70;1.00;;;;;;6128200;23;19940;-79
2022/12/25 15:55:37;;;;;;;;;;;12.60;1.00;;;;;;6128096;23;19971;-79
2022/12/25 15:58:02;;;;;;;;;;;12.50;1.00;;;;;;6128375;23;19915;-79
2022/12/25 16:00:28;;;;;;;;;;;12.50;99.90;;;;;;6102393;23;19905;-80
2022/12/25 16:02:53;;;;;;;;;;;12.40;84.60;;;;;;6128358;23;19912;-80